Bedum, Netherlands
Current Conditions -  °F | °C
As of 9:55 PM on Tuesday 27 Jan 2015 (Local Time) from EHGG Reporting Station
Haze Haze  
Wind Chill: 27°   Ceiling: Unl
Heat Index: 34°   Visibility: 1.6mi
Dew Point: 34°   Wind: 8mph
Humidity: 100%   Direction: 220°SW
Pressure: 30.09"   Gusts: NA
Location:  53.3°N, 6.6°E
Report Text: EHGG 272055Z AUTO 22007KT 2700 BR FEW003 01/01 Q1019 BECMG 5000SCT007
Loading
Personal Weather Stations






























Interactive Weather Map New forecast layout! Learn more

10-Day Weather Forecast

Advertisements
Track Severe Weather on mobile